Time;durP1;ratioP1;P1;durP2;ratioP2;P2;SDS_P1;SDS_P2;PMS_P1;PMS_P2;Temp;Humidity;BMP_temperature;BMP_pressure;BME280_temperature;BME280_humidity;BME280_pressure;Samples;Min_cycle;Max_cycle;Signal;HPM_P1;HPM_P2
2022/01/26 00:07:43;;;;;;;;;;;;;;;;;;5077636;28;20007;-93
2022/01/26 00:10:08;;;;;;;;;;;;;;;;;;5076166;28;19944;-93
2022/01/26 00:12:33;;;;;;;;;;;;;;;;;;5076017;28;20330;-93
2022/01/26 00:14:59;;;;;;;;;;;;;;;;;;5076174;28;19999;-93
2022/01/26 00:17:24;;;;;;;;;;;;;;;;;;5075954;28;19994;-94
2022/01/26 00:19:55;;;;;;;;;;;;;;;;;;5075817;28;20273;-93
2022/01/26 00:22:40;;;;;;;;;;;;;;;;;;5075936;28;19908;-92
2022/01/26 00:25:34;;;;;;;;;;;;;;;;;;5076258;28;19908;-93
2022/01/26 00:38:40;;;;;;;;;;;;;;;;;;5076890;28;19947;-92
2022/01/26 00:41:08;;;;;;;;;;;;;;;;;;5075628;28;19908;-93
2022/01/26 00:43:33;;;;;;;;;;;;;;;;;;5075557;28;19965;-93
2022/01/26 00:46:00;;;;;;;;;;;;;;;;;;5075495;28;20348;-93
2022/01/26 00:48:25;;;;;;;;;;;;;;;;;;5075288;28;19950;-93
2022/01/26 00:50:52;;;;;;;;;;;;;;;;;;5075402;28;19959;-93
2022/01/26 00:53:17;;;;;;;;;;;;;;;;;;5075427;28;20261;-93
2022/01/26 00:55:42;;;;;;;;;;;;;;;;;;5075212;28;19912;-93
2022/01/26 00:58:07;;;;;;;;;;;;;;;;;;5075213;28;19953;-93
2022/01/26 01:00:33;;;;;;;;;;;;;;;;;;5075170;28;19904;-93
2022/01/26 01:02:58;;;;;;;;;;;;;;;;;;5075118;28;19966;-93
2022/01/26 01:05:28;;;;;;;;;;;;;;;;;;5075162;28;19904;-93
2022/01/26 01:08:00;;;;;;;;;;;;;;;;;;5074939;28;19904;-93
2022/01/26 01:10:25;;;;;;;;;;;;;;;;;;5074916;28;19908;-93
2022/01/26 01:12:57;;;;;;;;;;;;;;;;;;5074886;28;19911;-93
2022/01/26 01:15:23;;;;;;;;;;;;;;;;;;5074952;28;19904;-93
2022/01/26 01:17:53;;;;;;;;;;;;;;;;;;5074773;28;19958;-93
2022/01/26 01:30:42;;;;;;;;;;;;;;;;;;5075858;28;19905;-93
2022/01/26 01:33:10;;;;;;;;;;;;;;;;;;5074918;28;20330;-94
2022/01/26 01:35:36;;;;;;;;;;;;;;;;;;5068362;28;19987;-93
2022/01/26 01:38:09;;;;;;;;;;;;;;;;;;5074459;28;19998;-93
2022/01/26 01:40:34;;;;;;;;;;;;;;;;;;5074508;28;20019;-93
2022/01/26 01:42:59;;;;;;;;;;;;;;;;;;5074694;28;19932;-93
2022/01/26 01:45:24;;;;;;;;;;;;;;;;;;5074187;28;19908;-93
2022/01/26 01:47:49;;;;;;;;;;;;;;;;;;5074356;28;19915;-93
2022/01/26 01:50:14;;;;;;;;;;;;;;;;;;5074229;28;20366;-93
2022/01/26 01:52:39;;;;;;;;;;;;;;;;;;5074138;28;19919;-93
2022/01/26 01:55:05;;;;;;;;;;;;;;;;;;5074107;28;19904;-93
2022/01/26 01:57:30;;;;;;;;;;;;;;;;;;5074166;28;19912;-93
2022/01/26 01:59:55;;;;;;;;;;;;;;;;;;5074052;28;19944;-94
2022/01/26 02:02:20;;;;;;;;;;;;;;;;;;5074013;28;20252;-93
2022/01/26 02:04:45;;;;;;;;;;;;;;;;;;5073901;28;19904;-92
2022/01/26 02:07:10;;;;;;;;;;;;;;;;;;5073959;28;19912;-93
2022/01/26 02:09:36;;;;;;;;;;;;;;;;;;5073940;28;19904;-93
2022/01/26 02:12:02;;;;;;;;;;;;;;;;;;5073860;28;20280;-93
2022/01/26 02:17:05;;;;;;;;;;;;;;;;;;5074933;28;19911;-93
2022/01/26 03:02:55;;;;;;;;;;;;;;;;;;5075013;28;19908;-93
2022/01/26 03:05:25;;;;;;;;;;;;;;;;;;5073410;28;19904;-93
2022/01/26 03:07:56;;;;;;;;;;;;;;;;;;5073467;28;19909;-93
2022/01/26 03:10:31;;;;;;;;;;;;;;;;;;5073422;28;19963;-93
2022/01/26 03:13:01;;;;;;;;;;;;;;;;;;5073424;28;19912;-93
2022/01/26 03:15:32;;;;;;;;;;;;;;;;;;5073370;28;19927;-93
2022/01/26 03:18:25;;;;;;;;;;;;;;;;;;5073318;28;19912;-94
2022/01/26 03:20:51;;;;;;;;;;;;;;;;;;5074077;28;19912;-93
2022/01/26 03:29:09;;;;;;;;;;;;;;;;;;5074540;28;19912;-93
2022/01/26 03:34:09;;;;;;;;;;;;;;;;;;5077172;28;19999;-93
2022/01/26 03:36:45;;;;;;;;;;;;;;;;;;5076896;28;20355;-94
2022/01/26 03:39:13;;;;;;;;;;;;;;;;;;5076835;28;19904;-93
2022/01/26 03:41:48;;;;;;;;;;;;;;;;;;5076670;28;19912;-93
2022/01/26 03:44:13;;;;;;;;;;;;;;;;;;5076709;28;19904;-93
2022/01/26 03:46:38;;;;;;;;;;;;;;;;;;5076624;28;20029;-93
2022/01/26 03:49:03;;;;;;;;;;;;;;;;;;5076612;28;19904;-93
2022/01/26 03:51:28;;;;;;;;;;;;;;;;;;5076456;28;20263;-92
2022/01/26 03:53:53;;;;;;;;;;;;;;;;;;5076542;28;19905;-93
2022/01/26 03:56:18;;;;;;;;;;;;;;;;;;5076372;28;19905;-93
2022/01/26 03:58:43;;;;;;;;;;;;;;;;;;5076489;28;20359;-93
2022/01/26 04:01:09;;;;;;;;;;;;;;;;;;5076302;28;19909;-92
2022/01/26 04:03:34;;;;;;;;;;;;;;;;;;5076360;28;19909;-93
2022/01/26 04:05:59;;;;;;;;;;;;;;;;;;5076329;28;19904;-93
2022/01/26 04:08:28;;;;;;;;;;;;;;;;;;5076218;28;19904;-93
2022/01/26 04:11:09;;;;;;;;;;;;;;;;;;5076131;28;20382;-94
2022/01/26 04:13:34;;;;;;;;;;;;;;;;;;5076192;28;19912;-94
2022/01/26 04:15:59;;;;;;;;;;;;;;;;;;5076081;28;19912;-93
2022/01/26 04:18:30;;;;;;;;;;;;;;;;;;5076106;28;19904;-94
2022/01/26 04:20:58;;;;;;;;;;;;;;;;;;5075958;28;19912;-93
2022/01/26 04:25:50;;;;;;;;;;;;;;;;;;5077401;28;19904;-93
2022/01/26 04:28:22;;;;;;;;;;;;;;;;;;5075902;28;19908;-94
2022/01/26 04:30:47;;;;;;;;;;;;;;;;;;5075835;28;19916;-94
2022/01/26 04:33:12;;;;;;;;;;;;;;;;;;5076315;28;19910;-93
2022/01/26 04:35:43;;;;;;;;;;;;;;;;;;5075819;28;19904;-94
2022/01/26 04:41:25;;;;;;;;;;;;;;;;;;5067902;28;19904;-93
2022/01/26 04:43:54;;;;;;;;;;;;;;;;;;5075292;28;19905;-93
2022/01/26 04:46:19;;;;;;;;;;;;;;;;;;5075568;28;19949;-93
2022/01/26 04:48:44;;;;;;;;;;;;;;;;;;5075541;28;19994;-93
2022/01/26 04:51:09;;;;;;;;;;;;;;;;;;5075387;28;19916;-93
2022/01/26 04:53:34;;;;;;;;;;;;;;;;;;5075507;28;20003;-93
2022/01/26 04:55:59;;;;;;;;;;;;;;;;;;5075464;28;19908;-93
2022/01/26 04:58:24;;;;;;;;;;;;;;;;;;5075392;28;19908;-92
2022/01/26 05:00:50;;;;;;;;;;;;;;;;;;5075198;28;19904;-93
2022/01/26 05:03:15;;;;;;;;;;;;;;;;;;5075241;28;20366;-93
2022/01/26 05:05:40;;;;;;;;;;;;;;;;;;5075064;28;19993;-93
2022/01/26 05:08:05;;;;;;;;;;;;;;;;;;5075113;28;19905;-92
2022/01/26 05:10:30;;;;;;;;;;;;;;;;;;5074980;28;19904;-93
2022/01/26 05:12:55;;;;;;;;;;;;;;;;;;5075026;28;19904;-93
2022/01/26 05:15:23;;;;;;;;;;;;;;;;;;5074994;28;19904;-92
2022/01/26 05:17:48;;;;;;;;;;;;;;;;;;5074872;28;19905;-92
2022/01/26 05:20:13;;;;;;;;;;;;;;;;;;5074734;28;20007;-92
2022/01/26 05:22:40;;;;;;;;;;;;;;;;;;5074690;28;19943;-93
2022/01/26 05:25:05;;;;;;;;;;;;;;;;;;5074814;28;20328;-92
2022/01/26 05:27:30;;;;;;;;;;;;;;;;;;5074700;28;20022;-92
2022/01/26 05:29:59;;;;;;;;;;;;;;;;;;5074703;28;20271;-93
2022/01/26 05:32:24;;;;;;;;;;;;;;;;;;5074517;28;19958;-92
2022/01/26 05:34:49;;;;;;;;;;;;;;;;;;5074656;28;19908;-92
2022/01/26 05:37:14;;;;;;;;;;;;;;;;;;5074572;28;20302;-92
2022/01/26 05:39:39;;;;;;;;;;;;;;;;;;5074431;28;19904;-93
2022/01/26 05:42:05;;;;;;;;;;;;;;;;;;5074560;28;19904;-92
2022/01/26 05:44:30;;;;;;;;;;;;;;;;;;5074441;28;19990;-93
2022/01/26 05:46:55;;;;;;;;;;;;;;;;;;5074259;28;19944;-92
2022/01/26 05:49:20;;;;;;;;;;;;;;;;;;5074334;28;19991;-92
2022/01/26 05:51:46;;;;;;;;;;;;;;;;;;5074426;28;20010;-92
2022/01/26 05:54:11;;;;;;;;;;;;;;;;;;5074145;28;20025;-93
2022/01/26 05:56:36;;;;;;;;;;;;;;;;;;5073466;28;19905;-93
2022/01/26 05:59:01;;;;;;;;;;;;;;;;;;5074061;28;20409;-93
2022/01/26 06:01:26;;;;;;;;;;;;;;;;;;5074064;28;20329;-93
2022/01/26 06:03:52;;;;;;;;;;;;;;;;;;5074093;28;20299;-93
2022/01/26 06:06:17;;;;;;;;;;;;;;;;;;5074069;28;19912;-92
2022/01/26 06:08:42;;;;;;;;;;;;;;;;;;5074066;28;20372;-92
2022/01/26 06:11:07;;;;;;;;;;;;;;;;;;5073886;28;19909;-93
2022/01/26 06:13:32;;;;;;;;;;;;;;;;;;5073934;28;20355;-93
2022/01/26 06:15:58;;;;;;;;;;;;;;;;;;5073853;28;20360;-92
2022/01/26 06:18:23;;;;;;;;;;;;;;;;;;5073765;28;19915;-93
2022/01/26 06:20:48;;;;;;;;;;;;;;;;;;5073721;28;20359;-92
2022/01/26 06:23:13;;;;;;;;;;;;;;;;;;5073845;28;19905;-92
2022/01/26 06:25:38;;;;;;;;;;;;;;;;;;5073763;28;19904;-92
2022/01/26 06:28:08;;;;;;;;;;;;;;;;;;5073779;28;19905;-92
2022/01/26 06:30:33;;;;;;;;;;;;;;;;;;5073729;28;19904;-93
2022/01/26 06:32:58;;;;;;;;;;;;;;;;;;5073614;28;19953;-92
2022/01/26 06:35:23;;;;;;;;;;;;;;;;;;5073582;28;19904;-92
2022/01/26 06:37:48;;;;;;;;;;;;;;;;;;5073592;28;19991;-92
2022/01/26 06:40:13;;;;;;;;;;;;;;;;;;5073577;28;19912;-92
2022/01/26 06:45:37;;;;;;;;;;;;;;;;;;5065754;28;19905;-92
2022/01/26 06:50:43;;;;;;;;;;;;;;;;;;5074588;28;19987;-93
2022/01/26 06:53:08;;;;;;;;;;;;;;;;;;5073386;28;19998;-93
2022/01/26 06:55:33;;;;;;;;;;;;;;;;;;5073459;28;19958;-93
2022/01/26 06:57:58;;;;;;;;;;;;;;;;;;5073411;28;19905;-92
2022/01/26 07:00:23;;;;;;;;;;;;;;;;;;5073465;28;20271;-92
2022/01/26 07:02:48;;;;;;;;;;;;;;;;;;5073408;28;19905;-93
2022/01/26 07:05:13;;;;;;;;;;;;;;;;;;5073312;28;20256;-93
2022/01/26 07:07:38;;;;;;;;;;;;;;;;;;5075593;28;19912;-92
2022/01/26 07:10:04;;;;;;;;;;;;;;;;;;5077289;28;19904;-92
2022/01/26 07:12:29;;;;;;;;;;;;;;;;;;5077151;28;20359;-92
2022/01/26 07:23:06;;;;;;;;;;;;;;;;;;5078285;28;20007;-92
2022/01/26 07:25:31;;;;;;;;;;;;;;;;;;5077088;28;19960;-92
2022/01/26 07:27:57;;;;;;;;;;;;;;;;;;5077012;28;19940;-93
2022/01/26 07:30:22;;;;;;;;;;;;;;;;;;5076898;28;19940;-93
2022/01/26 07:32:47;;;;;;;;;;;;;;;;;;5076850;28;19955;-92
2022/01/26 07:35:12;;;;;;;;;;;;;;;;;;5076934;28;19904;-93
2022/01/26 07:37:38;;;;;;;;;;;;;;;;;;5076827;28;19911;-92
2022/01/26 07:40:06;;;;;;;;;;;;;;;;;;5076801;28;19994;-92
2022/01/26 07:42:31;;;;;;;;;;;;;;;;;;5076941;28;20264;-93
2022/01/26 07:44:56;;;;;;;;;;;;;;;;;;5076642;28;19954;-93
2022/01/26 07:47:23;;;;;;;;;;;;;;;;;;5076623;28;19911;-92
2022/01/26 07:49:48;;;;;;;;;;;;;;;;;;5076697;28;19904;-92
2022/01/26 07:52:14;;;;;;;;;;;;;;;;;;5076483;28;19995;-92
2022/01/26 07:54:39;;;;;;;;;;;;;;;;;;5076525;28;19927;-92
2022/01/26 07:57:06;;;;;;;;;;;;;;;;;;5076589;28;19911;-93
2022/01/26 07:59:31;;;;;;;;;;;;;;;;;;5076407;28;19999;-92
2022/01/26 08:02:00;;;;;;;;;;;;;;;;;;5076395;28;19954;-92
2022/01/26 08:04:25;;;;;;;;;;;;;;;;;;5076408;28;19908;-93
2022/01/26 08:06:50;;;;;;;;;;;;;;;;;;5076312;28;19905;-92
2022/01/26 08:09:15;;;;;;;;;;;;;;;;;;5076578;28;19930;-92
2022/01/26 08:11:41;;;;;;;;;;;;;;;;;;5076172;28;19947;-93
2022/01/26 08:14:06;;;;;;;;;;;;;;;;;;5076173;28;19904;-92
2022/01/26 08:16:31;;;;;;;;;;;;;;;;;;5076048;28;19908;-92
2022/01/26 08:18:56;;;;;;;;;;;;;;;;;;5075313;28;19912;-93
2022/01/26 08:21:21;;;;;;;;;;;;;;;;;;5076058;28;20011;-93
2022/01/26 08:23:48;;;;;;;;;;;;;;;;;;5075941;28;19904;-93
2022/01/26 08:26:14;;;;;;;;;;;;;;;;;;5075895;28;19905;-92
2022/01/26 08:28:41;;;;;;;;;;;;;;;;;;5075957;28;19961;-92
2022/01/26 08:31:07;;;;;;;;;;;;;;;;;;5075795;28;19912;-93
2022/01/26 08:33:32;;;;;;;;;;;;;;;;;;5075655;28;20364;-93
2022/01/26 08:35:57;;;;;;;;;;;;;;;;;;5075795;28;19908;-92
2022/01/26 08:38:23;;;;;;;;;;;;;;;;;;5075644;28;19927;-92
2022/01/26 08:40:49;;;;;;;;;;;;;;;;;;5075659;28;19912;-93
2022/01/26 08:43:14;;;;;;;;;;;;;;;;;;5075747;28;19912;-92
2022/01/26 08:45:39;;;;;;;;;;;;;;;;;;5075557;28;19904;-92
2022/01/26 08:48:04;;;;;;;;;;;;;;;;;;5075596;28;20007;-92
2022/01/26 08:50:29;;;;;;;;;;;;;;;;;;5075396;28;19904;-92
2022/01/26 08:52:54;;;;;;;;;;;;;;;;;;5075274;28;19908;-93
2022/01/26 08:55:19;;;;;;;;;;;;;;;;;;5075460;28;20350;-92
2022/01/26 08:57:45;;;;;;;;;;;;;;;;;;5075400;28;19904;-92
2022/01/26 09:00:10;;;;;;;;;;;;;;;;;;5075289;28;19904;-92
2022/01/26 09:02:35;;;;;;;;;;;;;;;;;;5075419;28;19908;-92
2022/01/26 09:05:00;;;;;;;;;;;;;;;;;;5075228;28;19916;-92
2022/01/26 09:07:25;;;;;;;;;;;;;;;;;;5075243;28;19904;-93
2022/01/26 09:09:50;;;;;;;;;;;;;;;;;;5075094;28;20374;-93
2022/01/26 09:12:16;;;;;;;;;;;;;;;;;;5075004;28;19999;-92
2022/01/26 09:14:42;;;;;;;;;;;;;;;;;;5074991;28;19908;-92
2022/01/26 09:17:08;;;;;;;;;;;;;;;;;;5075107;28;20339;-93
2022/01/26 09:19:33;;;;;;;;;;;;;;;;;;5074871;28;19916;-91
2022/01/26 09:21:58;;;;;;;;;;;;;;;;;;5074887;28;19927;-92
2022/01/26 09:24:23;;;;;;;;;;;;;;;;;;5074840;28;19905;-93
2022/01/26 09:26:48;;;;;;;;;;;;;;;;;;5074811;28;19908;-93
2022/01/26 09:29:13;;;;;;;;;;;;;;;;;;5074757;28;19951;-93
2022/01/26 09:31:38;;;;;;;;;;;;;;;;;;5073615;28;19920;-92
2022/01/26 09:34:03;;;;;;;;;;;;;;;;;;5074584;28;19904;-92
2022/01/26 09:36:30;;;;;;;;;;;;;;;;;;5074511;28;19905;-92
2022/01/26 09:38:55;;;;;;;;;;;;;;;;;;5074364;28;19911;-92
2022/01/26 09:41:20;;;;;;;;;;;;;;;;;;5074538;28;19904;-93
2022/01/26 09:43:45;;;;;;;;;;;;;;;;;;5074511;28;19930;-92
2022/01/26 09:46:11;;;;;;;;;;;;;;;;;;5074334;28;20391;-93
2022/01/26 09:48:38;;;;;;;;;;;;;;;;;;5074269;28;20322;-92
2022/01/26 09:51:03;;;;;;;;;;;;;;;;;;5074072;28;19912;-93
2022/01/26 09:53:30;;;;;;;;;;;;;;;;;;5074303;28;19984;-92
2022/01/26 09:55:56;;;;;;;;;;;;;;;;;;5074189;28;20363;-92
2022/01/26 09:58:21;;;;;;;;;;;;;;;;;;5074072;28;19912;-92
2022/01/26 10:00:46;;;;;;;;;;;;;;;;;;5074165;28;20008;-93
2022/01/26 10:03:11;;;;;;;;;;;;;;;;;;5074087;28;19904;-93
2022/01/26 10:05:36;;;;;;;;;;;;;;;;;;5074089;28;19911;-92
2022/01/26 10:18:38;;;;;;;;;;;;;;;;;;5075228;28;19905;-93
2022/01/26 10:21:04;;;;;;;;;;;;;;;;;;5073663;28;19912;-92
2022/01/26 10:23:29;;;;;;;;;;;;;;;;;;5073803;28;20276;-92
2022/01/26 10:25:54;;;;;;;;;;;;;;;;;;5073704;28;19915;-92
2022/01/26 10:28:20;;;;;;;;;;;;;;;;;;5073751;28;19905;-92
2022/01/26 10:30:45;;;;;;;;;;;;;;;;;;5073589;28;19911;-94
2022/01/26 10:33:11;;;;;;;;;;;;;;;;;;5073718;28;19908;-93
2022/01/26 10:35:36;;;;;;;;;;;;;;;;;;5073681;28;19905;-93
2022/01/26 10:38:01;;;;;;;;;;;;;;;;;;5073687;28;19908;-92
2022/01/26 10:40:27;;;;;;;;;;;;;;;;;;5073707;28;19904;-92
2022/01/26 10:42:52;;;;;;;;;;;;;;;;;;5073345;28;19958;-92
2022/01/26 10:45:20;;;;;;;;;;;;;;;;;;5073552;28;19953;-92
2022/01/26 10:47:47;;;;;;;;;;;;;;;;;;5073592;28;20363;-92
2022/01/26 10:50:31;;;;;;;;;;;;;;;;;;5073550;28;19904;-93
2022/01/26 10:52:56;;;;;;;;;;;;;;;;;;5073476;28;20003;-92
2022/01/26 10:55:22;;;;;;;;;;;;;;;;;;5073462;28;20437;-92
2022/01/26 10:57:47;;;;;;;;;;;;;;;;;;5073514;28;19959;-92
2022/01/26 11:00:12;;;;;;;;;;;;;;;;;;5073356;28;19959;-92
2022/01/26 11:02:37;;;;;;;;;;;;;;;;;;5073520;28;19952;-92
2022/01/26 11:05:02;;;;;;;;;;;;;;;;;;5073527;28;19946;-93
2022/01/26 11:07:27;;;;;;;;;;;;;;;;;;5073376;28;19904;-93
2022/01/26 11:09:52;;;;;;;;;;;;;;;;;;5073475;28;19904;-93
2022/01/26 11:12:17;;;;;;;;;;;;;;;;;;5073292;28;19908;-92
2022/01/26 11:14:42;;;;;;;;;;;;;;;;;;5073299;28;19905;-92
2022/01/26 11:17:08;;;;;;;;;;;;;;;;;;5073237;28;20047;-92
2022/01/26 11:19:33;;;;;;;;;;;;;;;;;;5072971;28;19912;-92
2022/01/26 11:21:58;;;;;;;;;;;;;;;;;;5073147;28;19944;-93
2022/01/26 11:24:23;;;;;;;;;;;;;;;;;;5073228;28;20356;-93
2022/01/26 11:26:49;;;;;;;;;;;;;;;;;;5073203;28;19935;-92
2022/01/26 11:29:14;;;;;;;;;;;;;;;;;;5073211;28;19911;-93
2022/01/26 11:31:40;;;;;;;;;;;;;;;;;;5073031;28;19908;-92
2022/01/26 11:34:05;;;;;;;;;;;;;;;;;;5073141;28;19995;-92
2022/01/26 11:36:31;;;;;;;;;;;;;;;;;;5073082;28;19904;-92
2022/01/26 11:46:49;;;;;;;;;;;;;;;;;;5074397;28;20379;-92
2022/01/26 11:49:14;;;;;;;;;;;;;;;;;;5073033;28;20348;-92
2022/01/26 11:51:39;;;;;;;;;;;;;;;;;;5072907;28;19909;-93
2022/01/26 11:54:04;;;;;;;;;;;;;;;;;;5073898;28;19911;-92
2022/01/26 11:56:29;;;;;;;;;;;;;;;;;;5076419;28;19912;-92
2022/01/26 11:58:55;;;;;;;;;;;;;;;;;;5076509;28;19904;-92
2022/01/26 12:01:25;;;;;;;;;;;;;;;;;;5076384;28;20517;-92
2022/01/26 12:03:54;;;;;;;;;;;;;;;;;;5076424;28;19904;-93
2022/01/26 12:06:22;;;;;;;;;;;;;;;;;;5076285;28;20011;-93
2022/01/26 12:08:47;;;;;;;;;;;;;;;;;;5076175;28;19904;-92
2022/01/26 12:11:12;;;;;;;;;;;;;;;;;;5076102;28;20348;-92
2022/01/26 12:13:38;;;;;;;;;;;;;;;;;;5076194;28;19908;-93
2022/01/26 12:16:07;;;;;;;;;;;;;;;;;;5076132;28;19954;-92
2022/01/26 12:18:38;;;;;;;;;;;;;;;;;;5076134;28;19904;-93
2022/01/26 12:39:15;;;;;;;;;;;;;;;;;;5077126;28;19916;-92
2022/01/26 12:41:48;;;;;;;;;;;;;;;;;;5075730;28;19962;-93
2022/01/26 12:44:13;;;;;;;;;;;;;;;;;;5075650;28;19904;-93
2022/01/26 12:46:38;;;;;;;;;;;;;;;;;;5075593;28;19910;-91
2022/01/26 12:49:03;;;;;;;;;;;;;;;;;;5075498;28;19911;-93
2022/01/26 12:51:28;;;;;;;;;;;;;;;;;;5075346;28;19908;-92
2022/01/26 12:53:53;;;;;;;;;;;;;;;;;;5075446;28;19912;-93
2022/01/26 12:56:18;;;;;;;;;;;;;;;;;;5075395;28;19908;-92
2022/01/26 12:58:44;;;;;;;;;;;;;;;;;;5075411;28;19904;-92
2022/01/26 13:01:09;;;;;;;;;;;;;;;;;;5075346;28;19904;-93
2022/01/26 13:03:34;;;;;;;;;;;;;;;;;;5075256;28;19958;-92
2022/01/26 13:05:59;;;;;;;;;;;;;;;;;;5075192;28;20316;-92
2022/01/26 13:08:24;;;;;;;;;;;;;;;;;;5075136;28;19912;-92
2022/01/26 13:10:49;;;;;;;;;;;;;;;;;;5074989;28;20393;-92
2022/01/26 13:13:15;;;;;;;;;;;;;;;;;;5075222;28;19954;-92
2022/01/26 13:15:46;;;;;;;;;;;;;;;;;;5074979;28;19954;-92
2022/01/26 13:18:15;;;;;;;;;;;;;;;;;;5075030;28;19991;-92
2022/01/26 13:21:36;;;;;;;;;;;;;;;;;;5074862;28;19916;-93
2022/01/26 13:23:42;;;;;;;;;;;;;;;;;;5070302;28;20367;-92
2022/01/26 13:29:20;;;;;;;;;;;;;;;;;;5053037;28;19951;-93
2022/01/26 13:37:05;;;;;;;;;;;;;;;;;;5076265;28;19908;-92
2022/01/26 13:52:52;;;;;;;;;;;;;;;;;;5059605;28;20268;-93
2022/01/26 13:58:05;;;;;;;;;;;;;;;;;;5075277;28;20379;-92
2022/01/26 14:00:36;;;;;;;;;;;;;;;;;;5074156;28;20344;-92
2022/01/26 14:03:04;;;;;;;;;;;;;;;;;;5074171;28;20348;-93
2022/01/26 14:05:29;;;;;;;;;;;;;;;;;;5074040;28;20291;-92
2022/01/26 14:07:56;;;;;;;;;;;;;;;;;;5074051;28;20378;-92
2022/01/26 14:10:21;;;;;;;;;;;;;;;;;;5073945;28;19912;-93
2022/01/26 14:12:48;;;;;;;;;;;;;;;;;;5073767;28;19908;-92
2022/01/26 14:15:19;;;;;;;;;;;;;;;;;;5074049;28;19904;-92
2022/01/26 14:18:03;;;;;;;;;;;;;;;;;;5073307;28;19910;-92
2022/01/26 14:23:16;;;;;;;;;;;;;;;;;;5075248;28;20015;-92
2022/01/26 14:25:42;;;;;;;;;;;;;;;;;;5073797;28;19908;-92
2022/01/26 14:28:10;;;;;;;;;;;;;;;;;;5073936;28;19909;-92
2022/01/26 14:33:15;;;;;;;;;;;;;;;;;;5075362;28;19915;-92
2022/01/26 14:35:51;;;;;;;;;;;;;;;;;;5073718;28;19904;-92
2022/01/26 15:00:12;;;;;;;;;;;;;;;;;;5074617;28;19910;-93
2022/01/26 15:33:09;;;;;;;;;;;;;;;;;;5082126;28;19915;-92
2022/01/26 15:57:21;;;;;;;;;;;;;;;;;;5075079;28;20322;-88
2022/01/26 17:46:41;;;;;;;;;;;;;;;;;;5073739;28;19958;-87
2022/01/26 17:55:19;;;;;;;;;;;;;;;;;;5065094;28;20276;-88
2022/01/26 18:16:29;;;;;;;;;;;;;;;;;;5074165;28;19904;-88
2022/01/26 18:51:22;;;;;;;;;;;;;;;;;;5053572;28;20449;-87
2022/01/26 18:53:48;;;;;;;;;;;;;;;;;;5056935;28;19918;-87
2022/01/26 18:56:13;;;;;;;;;;;;;;;;;;5071581;28;19908;-87
2022/01/26 18:58:38;;;;;;;;;;;;;;;;;;5069612;28;19914;-87
2022/01/26 19:01:03;;;;;;;;;;;;;;;;;;5073190;28;19999;-88
2022/01/26 19:03:28;;;;;;;;;;;;;;;;;;5073947;28;19915;-87
2022/01/26 19:05:55;;;;;;;;;;;;;;;;;;5075904;28;19908;-87
2022/01/26 19:08:21;;;;;;;;;;;;;;;;;;5076963;28;20413;-88
2022/01/26 19:10:46;;;;;;;;;;;;;;;;;;5076238;28;19912;-87
2022/01/26 19:13:12;;;;;;;;;;;;;;;;;;5075921;28;19923;-87
2022/01/26 19:15:37;;;;;;;;;;;;;;;;;;5075898;28;19908;-87
2022/01/26 19:18:09;;;;;;;;;;;;;;;;;;5076406;28;20053;-87
2022/01/26 19:20:54;;;;;;;;;;;;;;;;;;5075760;28;19935;-88
2022/01/26 19:23:36;;;;;;;;;;;;;;;;;;5075731;28;19915;-87
2022/01/26 19:26:09;;;;;;;;;;;;;;;;;;5075720;28;19908;-87
2022/01/26 19:28:43;;;;;;;;;;;;;;;;;;5073983;28;19908;-87
2022/01/26 19:32:00;;;;;;;;;;;;;;;;;;5075338;28;19908;-87
2022/01/26 19:43:29;;;;;;;;;;;;;;;;;;5071928;28;19916;-87
2022/01/26 19:53:25;;;;;;;;;;;;;;;;;;5027309;28;19990;-87
2022/01/26 19:55:50;;;;;;;;;;;;;;;;;;5076049;28;20361;-88
2022/01/26 19:58:16;;;;;;;;;;;;;;;;;;5074023;28;20003;-87
2022/01/26 20:00:46;;;;;;;;;;;;;;;;;;5073810;28;19908;-87
2022/01/26 20:03:11;;;;;;;;;;;;;;;;;;5070728;28;19912;-87
2022/01/26 20:05:36;;;;;;;;;;;;;;;;;;5074434;28;20002;-88
2022/01/26 20:08:09;;;;;;;;;;;;;;;;;;5075354;28;19912;-87
2022/01/26 20:10:40;;;;;;;;;;;;;;;;;;5074932;28;19908;-88
2022/01/26 20:13:13;;;;;;;;;;;;;;;;;;5074147;28;19930;-86
2022/01/26 20:15:39;;;;;;;;;;;;;;;;;;5073703;28;19915;-88
2022/01/26 20:18:04;;;;;;;;;;;;;;;;;;5075873;28;20339;-88
2022/01/26 20:20:29;;;;;;;;;;;;;;;;;;5074238;28;19912;-87
2022/01/26 20:22:54;;;;;;;;;;;;;;;;;;5074943;28;19908;-88
2022/01/26 20:25:19;;;;;;;;;;;;;;;;;;5075914;28;19912;-87
2022/01/26 20:27:44;;;;;;;;;;;;;;;;;;5074893;28;20257;-88
2022/01/26 20:30:15;;;;;;;;;;;;;;;;;;5075620;28;19926;-88
2022/01/26 20:32:40;;;;;;;;;;;;;;;;;;5074856;28;20376;-89
2022/01/26 20:35:05;;;;;;;;;;;;;;;;;;5074794;28;20012;-88
2022/01/26 20:37:30;;;;;;;;;;;;;;;;;;5074672;28;19908;-88
2022/01/26 20:39:55;;;;;;;;;;;;;;;;;;5075905;28;19908;-87
2022/01/26 20:42:20;;;;;;;;;;;;;;;;;;5075519;28;19908;-87
2022/01/26 20:44:45;;;;;;;;;;;;;;;;;;5070541;28;20389;-88
2022/01/26 20:47:11;;;;;;;;;;;;;;;;;;5073935;28;19911;-88
2022/01/26 20:49:36;;;;;;;;;;;;;;;;;;5072912;28;19910;-87
2022/01/26 20:52:01;;;;;;;;;;;;;;;;;;5073847;28;19916;-88
2022/01/26 20:54:26;;;;;;;;;;;;;;;;;;5074125;28;19904;-87
2022/01/26 20:56:51;;;;;;;;;;;;;;;;;;5073700;28;19947;-88
2022/01/26 20:59:16;;;;;;;;;;;;;;;;;;5074162;28;20356;-88
2022/01/26 21:01:41;;;;;;;;;;;;;;;;;;5074892;28;19914;-87
2022/01/26 21:04:06;;;;;;;;;;;;;;;;;;5075087;28;19975;-88
2022/01/26 21:06:31;;;;;;;;;;;;;;;;;;5073987;28;20033;-88
2022/01/26 21:08:57;;;;;;;;;;;;;;;;;;5073788;28;19959;-87
2022/01/26 21:11:22;;;;;;;;;;;;;;;;;;5074775;28;19908;-87
2022/01/26 21:13:53;;;;;;;;;;;;;;;;;;5072872;28;20347;-87
2022/01/26 21:16:18;;;;;;;;;;;;;;;;;;5073061;28;20421;-87
2022/01/26 21:18:43;;;;;;;;;;;;;;;;;;5073386;28;19916;-88
2022/01/26 21:21:08;;;;;;;;;;;;;;;;;;5073259;28;19916;-88
2022/01/26 21:23:35;;;;;;;;;;;;;;;;;;5073859;28;20271;-88
2022/01/26 21:26:00;;;;;;;;;;;;;;;;;;5073335;28;20314;-87
2022/01/26 21:28:25;;;;;;;;;;;;;;;;;;5073660;28;20276;-87
2022/01/26 21:30:50;;;;;;;;;;;;;;;;;;5074818;28;19909;-88
2022/01/26 21:33:18;;;;;;;;;;;;;;;;;;5073403;28;19915;-87
2022/01/26 21:35:43;;;;;;;;;;;;;;;;;;5073488;28;20270;-88
2022/01/26 21:38:08;;;;;;;;;;;;;;;;;;5073201;28;20356;-87
2022/01/26 21:40:33;;;;;;;;;;;;;;;;;;5053715;28;19904;-88
2022/01/26 21:42:58;;;;;;;;;;;;;;;;;;5053291;28;19905;-88
2022/01/26 21:45:23;;;;;;;;;;;;;;;;;;5054791;28;19909;-87
2022/01/26 21:47:49;;;;;;;;;;;;;;;;;;5054569;28;20394;-88
2022/01/26 21:50:14;;;;;;;;;;;;;;;;;;5054526;28;20362;-88
2022/01/26 21:52:39;;;;;;;;;;;;;;;;;;5054335;28;19912;-88
2022/01/26 21:55:04;;;;;;;;;;;;;;;;;;5053166;28;19991;-88
2022/01/26 21:57:30;;;;;;;;;;;;;;;;;;5052911;28;20257;-88
2022/01/26 21:59:55;;;;;;;;;;;;;;;;;;5054258;28;19904;-88
2022/01/26 22:02:21;;;;;;;;;;;;;;;;;;5052825;28;19911;-88
2022/01/26 22:04:46;;;;;;;;;;;;;;;;;;5052304;28;19909;-88
2022/01/26 22:07:11;;;;;;;;;;;;;;;;;;5052630;28;19904;-88
2022/01/26 22:09:36;;;;;;;;;;;;;;;;;;5051515;28;20341;-88
2022/01/26 22:12:01;;;;;;;;;;;;;;;;;;5051069;28;19916;-88
2022/01/26 22:14:26;;;;;;;;;;;;;;;;;;5051868;28;19913;-88
2022/01/26 22:16:51;;;;;;;;;;;;;;;;;;5051165;28;19912;-88
2022/01/26 22:19:16;;;;;;;;;;;;;;;;;;5051248;28;19915;-88
2022/01/26 22:21:42;;;;;;;;;;;;;;;;;;5051557;28;19905;-88
2022/01/26 22:24:09;;;;;;;;;;;;;;;;;;5052637;28;20348;-88
2022/01/26 22:26:35;;;;;;;;;;;;;;;;;;5051511;28;19905;-88
2022/01/26 22:29:00;;;;;;;;;;;;;;;;;;5054706;28;19977;-88
2022/01/26 22:31:25;;;;;;;;;;;;;;;;;;5071926;28;19908;-88
2022/01/26 22:33:50;;;;;;;;;;;;;;;;;;5073624;28;19908;-88
2022/01/26 22:36:15;;;;;;;;;;;;;;;;;;5072640;28;20386;-88
2022/01/26 22:38:40;;;;;;;;;;;;;;;;;;5071529;28;19908;-88
2022/01/26 22:41:06;;;;;;;;;;;;;;;;;;5071477;28;19908;-88
2022/01/26 22:43:31;;;;;;;;;;;;;;;;;;5073732;28;19908;-88
2022/01/26 22:45:56;;;;;;;;;;;;;;;;;;5073446;28;19908;-88
2022/01/26 22:48:22;;;;;;;;;;;;;;;;;;5073496;28;20284;-88
2022/01/26 22:50:47;;;;;;;;;;;;;;;;;;5072381;28;19904;-88
2022/01/26 22:53:12;;;;;;;;;;;;;;;;;;5073463;28;19908;-88
2022/01/26 22:55:37;;;;;;;;;;;;;;;;;;5053955;28;19931;-88
2022/01/26 22:58:02;;;;;;;;;;;;;;;;;;5064791;28;20346;-88
2022/01/26 23:00:29;;;;;;;;;;;;;;;;;;5070945;28;19909;-88
2022/01/26 23:02:54;;;;;;;;;;;;;;;;;;5072072;28;20268;-88
2022/01/26 23:05:52;;;;;;;;;;;;;;;;;;5072077;28;19904;-88
2022/01/26 23:08:17;;;;;;;;;;;;;;;;;;5073623;28;20248;-88
2022/01/26 23:10:42;;;;;;;;;;;;;;;;;;5071961;28;20372;-88
2022/01/26 23:13:07;;;;;;;;;;;;;;;;;;5073095;28;19908;-88
2022/01/26 23:15:32;;;;;;;;;;;;;;;;;;5057546;28;19909;-88
2022/01/26 23:17:57;;;;;;;;;;;;;;;;;;5051889;28;19953;-88
2022/01/26 23:20:22;;;;;;;;;;;;;;;;;;5053126;28;19913;-88
2022/01/26 23:22:48;;;;;;;;;;;;;;;;;;5052104;28;19970;-88
2022/01/26 23:25:22;;;;;;;;;;;;;;;;;;5051972;28;19915;-88
2022/01/26 23:30:52;;;;;;;;;;;;;;;;;;5053339;28;19904;-88
